KMHS/MHS METAR and TAF weather

Enter ICAO airport designator
Station Type Date Time Source
KMHS METAR 2020/04/05 21:56 UTC NOAA

KMHS 052156Z AUTO 00000KT 9SM -SN BKN010 OVC019 01/M01 A2954 RMK AO2 RAB02E38SNB38 SLP032 P0006 T00061006


Station Type Date Time Source
KMHS Decoded METAR 2020/04/05 21:56 UTC NOAA

MOUNT SHASTA, CA, United States (KMHS) 41-19N 122-19W 1078M
Apr 05, 2020 - 05:56 PM EDT / 2020.04.05 2156 UTC
Wind: Calm:0
Visibility: 9 mile(s):0
Sky conditions: overcast
Weather: light snow
Precipitation last hour: 0.06 inches
Temperature: 33.1 F (0.6 C)
Dew Point: 30.9 F (-0.6 C)
Relative Humidity: 91%
Pressure (altimeter): 29.54 in. Hg (1000 hPa)
ob: KMHS 052156Z AUTO 00000KT 9SM -SN BKN010 OVC019 01/M01 A2954 RMK AO2 RAB02E38SNB38 SLP032 P0006 T00061006
cycle: 22

Station Type Date Time Source
KMHS TAF UTC NOAA

Error!

Example: see airport list